createdAt,value
2019-05-19T00:01:01.486Z,10.60
2019-05-19T00:03:32.591Z,11.30
2019-05-19T00:06:03.323Z,11.20
2019-05-19T00:08:34.192Z,11.33
2019-05-19T00:11:04.660Z,13.37
2019-05-19T00:13:35.262Z,13.10
2019-05-19T00:16:05.812Z,13.47
2019-05-19T00:18:36.335Z,13.93
2019-05-19T00:21:06.791Z,14.50
2019-05-19T00:23:37.269Z,14.60
2019-05-19T00:26:07.891Z,14.60
2019-05-19T00:28:38.371Z,15.67
2019-05-19T00:31:08.909Z,15.27
2019-05-19T00:33:39.310Z,15.73
2019-05-19T00:36:09.811Z,16.17
2019-05-19T00:38:40.408Z,16.07
2019-05-19T00:41:11.099Z,14.90
2019-05-19T00:43:41.507Z,16.40
2019-05-19T00:46:12.002Z,15.63
2019-05-19T00:48:42.465Z,15.67
2019-05-19T00:51:13.171Z,14.07
2019-05-19T00:53:43.666Z,14.13
2019-05-19T00:56:14.448Z,12.10
2019-05-19T00:58:45.608Z,13.13
2019-05-19T01:01:16.086Z,12.90
2019-05-19T01:03:46.591Z,12.97
2019-05-19T01:06:17.821Z,12.83
2019-05-19T01:08:48.423Z,13.43
2019-05-19T01:11:19.350Z,12.63
2019-05-19T01:13:50.630Z,12.63
2019-05-19T01:16:21.179Z,13.03
2019-05-19T01:18:51.710Z,13.83
2019-05-19T01:21:22.417Z,12.90
2019-05-19T01:23:52.942Z,11.87
2019-05-19T01:26:23.519Z,12.07
2019-05-19T01:28:53.946Z,12.50
2019-05-19T01:31:24.503Z,10.53
2019-05-19T01:33:54.977Z,10.33
2019-05-19T01:36:25.378Z,9.07
2019-05-19T01:38:55.972Z,9.77
2019-05-19T01:41:26.447Z,7.10
2019-05-19T01:43:56.994Z,9.60
2019-05-19T01:46:27.530Z,9.33
2019-05-19T01:48:58.474Z,8.40
2019-05-19T01:51:29.472Z,10.30
2019-05-19T01:53:59.954Z,9.43
2019-05-19T01:56:30.446Z,8.43
2019-05-19T01:59:01.940Z,8.77
2019-05-19T02:01:32.435Z,15.27
2019-05-19T02:04:03.006Z,11.43
2019-05-19T02:06:33.470Z,13.57
2019-05-19T02:09:05.415Z,12.10
2019-05-19T02:11:35.914Z,13.33
2019-05-19T02:14:06.502Z,12.17
2019-05-19T02:16:36.931Z,17.57
2019-05-19T02:19:07.846Z,16.32
2019-05-19T02:21:38.351Z,18.50
2019-05-19T02:24:08.876Z,18.33
2019-05-19T02:26:39.391Z,20.43
2019-05-19T02:29:09.803Z,18.57
2019-05-19T02:31:40.307Z,20.40
2019-05-19T02:34:10.794Z,21.10
2019-05-19T02:36:41.361Z,18.40
2019-05-19T02:39:11.962Z,18.37
2019-05-19T02:41:45.655Z,18.20
2019-05-19T02:44:17.552Z,16.23
2019-05-19T02:46:49.271Z,18.07
2019-05-19T02:49:20.687Z,17.30
2019-05-19T02:51:52.527Z,14.70
2019-05-19T02:54:23.792Z,13.60
2019-05-19T02:56:54.703Z,14.33
2019-05-19T02:59:26.391Z,14.27
2019-05-19T03:02:05.510Z,12.50
2019-05-19T03:04:35.896Z,12.90
2019-05-19T03:07:06.521Z,13.37
2019-05-19T03:09:37.029Z,13.87
2019-05-19T03:12:08.174Z,14.07
2019-05-19T03:14:38.552Z,13.27
2019-05-19T03:17:09.144Z,13.23
2019-05-19T03:19:39.540Z,14.27
2019-05-19T03:22:10.142Z,14.60
2019-05-19T03:24:40.539Z,14.67
2019-05-19T03:27:11.000Z,13.40
2019-05-19T03:29:45.937Z,13.77
2019-05-19T03:32:26.405Z,14.27
2019-05-19T03:34:56.923Z,14.67
2019-05-19T03:37:27.415Z,14.73
2019-05-19T03:39:57.920Z,14.33
2019-05-19T03:42:28.562Z,14.03
2019-05-19T03:44:59.063Z,13.90
2019-05-19T03:47:29.545Z,15.47
2019-05-19T03:50:00.012Z,14.47
2019-05-19T03:52:30.456Z,14.93
2019-05-19T03:55:00.934Z,16.23
2019-05-19T03:57:31.335Z,16.37
2019-05-19T04:00:02.752Z,16.90
2019-05-19T04:02:33.655Z,17.37
2019-05-19T04:05:04.432Z,16.87
2019-05-19T04:07:34.864Z,16.67
2019-05-19T04:10:06.008Z,17.10
2019-05-19T04:12:36.412Z,16.77
2019-05-19T04:15:07.114Z,16.93
2019-05-19T04:17:37.628Z,17.73
2019-05-19T04:20:08.335Z,16.97
2019-05-19T04:22:38.767Z,17.47
2019-05-19T04:25:09.487Z,16.53
2019-05-19T04:27:40.294Z,15.23
2019-05-19T04:30:10.865Z,14.50
2019-05-19T04:32:41.354Z,14.97
2019-05-19T04:35:12.134Z,14.87
2019-05-19T04:37:42.627Z,15.53
2019-05-19T04:40:13.224Z,14.17
2019-05-19T04:42:43.639Z,15.10
2019-05-19T04:45:15.692Z,14.10
2019-05-19T04:47:46.107Z,13.50
2019-05-19T04:50:16.656Z,12.67
2019-05-19T04:52:47.078Z,13.33
2019-05-19T04:55:17.623Z,10.70
2019-05-19T04:57:48.529Z,12.90
2019-05-19T05:00:19.768Z,12.07
2019-05-19T05:02:50.540Z,11.87
2019-05-19T05:05:21.410Z,11.57
2019-05-19T05:07:51.884Z,11.70
2019-05-19T05:10:22.434Z,12.63
2019-05-19T05:12:52.939Z,11.30
2019-05-19T05:15:23.632Z,11.47
2019-05-19T05:17:54.107Z,12.30
2019-05-19T05:20:24.680Z,12.37
2019-05-19T05:22:55.595Z,12.03
2019-05-19T05:25:26.112Z,12.23
2019-05-19T05:27:56.720Z,11.30
2019-05-19T05:30:27.230Z,11.23
2019-05-19T05:32:57.722Z,10.67
2019-05-19T05:35:28.371Z,10.80
2019-05-19T05:37:59.016Z,11.07
2019-05-19T05:40:29.574Z,10.07
2019-05-19T05:43:00.075Z,10.30
2019-05-19T05:45:30.540Z,10.30
2019-05-19T05:48:00.886Z,9.73
2019-05-19T05:50:31.291Z,10.23
2019-05-19T05:53:01.783Z,10.87
2019-05-19T05:55:32.305Z,11.43
2019-05-19T05:58:03.513Z,10.70
2019-05-19T06:00:34.016Z,10.50
2019-05-19T06:03:05.107Z,11.53
2019-05-19T06:05:35.604Z,10.80
2019-05-19T06:08:06.075Z,11.50
2019-05-19T06:10:36.499Z,11.50
2019-05-19T06:13:06.893Z,12.00
2019-05-19T06:15:37.886Z,11.67
2019-05-19T06:18:08.434Z,11.10
2019-05-19T06:20:39.002Z,10.40
2019-05-19T06:23:09.575Z,10.70
2019-05-19T06:25:40.019Z,11.43
2019-05-19T06:28:10.631Z,10.97
2019-05-19T06:30:41.135Z,10.43
2019-05-19T06:33:11.654Z,11.10
2019-05-19T06:35:42.133Z,10.20
2019-05-19T06:38:12.563Z,10.97
2019-05-19T06:40:43.587Z,9.77
2019-05-19T06:43:14.156Z,9.67
2019-05-19T06:45:44.663Z,9.30
2019-05-19T06:48:15.064Z,9.30
2019-05-19T06:50:45.656Z,9.23
2019-05-19T06:53:16.130Z,10.00
2019-05-19T06:55:46.615Z,9.37
2019-05-19T06:58:17.101Z,9.50
2019-05-19T07:00:47.659Z,10.23
2019-05-19T07:03:18.139Z,10.13
2019-05-19T07:05:48.803Z,9.53
2019-05-19T07:08:19.301Z,9.90
2019-05-19T07:10:49.862Z,8.63
2019-05-19T07:13:20.272Z,8.27
2019-05-19T07:15:50.767Z,7.90
2019-05-19T07:18:21.287Z,7.17
2019-05-19T07:20:51.981Z,7.67
2019-05-19T07:23:28.174Z,7.53
2019-05-19T07:25:54.694Z,7.10
2019-05-19T07:28:25.183Z,7.80
2019-05-19T07:30:55.575Z,7.67
2019-05-19T07:33:26.031Z,7.37
2019-05-19T07:35:56.434Z,6.87
2019-05-19T07:38:26.911Z,7.57
2019-05-19T07:40:57.422Z,6.70
2019-05-19T07:43:27.827Z,7.10
2019-05-19T07:45:58.235Z,6.40
2019-05-19T07:48:28.803Z,6.77
2019-05-19T07:50:59.223Z,6.93
2019-05-19T07:53:42.289Z,7.10
2019-05-19T07:56:01.801Z,6.93
2019-05-19T07:58:32.440Z,7.13
2019-05-19T08:01:03.111Z,6.57
2019-05-19T08:03:33.607Z,6.47
2019-05-19T08:06:04.638Z,6.70
2019-05-19T08:08:35.143Z,6.20
2019-05-19T08:11:05.734Z,5.97
2019-05-19T08:13:36.261Z,6.33
2019-05-19T08:16:06.730Z,6.03
2019-05-19T08:18:37.228Z,5.93
2019-05-19T08:21:08.205Z,6.10
2019-05-19T08:23:38.607Z,6.30
2019-05-19T08:26:09.018Z,6.70
2019-05-19T08:28:39.502Z,6.27
2019-05-19T08:31:09.887Z,5.87
2019-05-19T08:33:40.425Z,6.63
2019-05-19T08:36:12.348Z,7.40
2019-05-19T08:38:42.922Z,6.47
2019-05-19T08:41:13.329Z,7.10
2019-05-19T08:43:43.823Z,7.17
2019-05-19T08:46:14.307Z,7.50
2019-05-19T08:48:44.739Z,7.50
2019-05-19T08:51:15.347Z,7.70
2019-05-19T08:53:45.695Z,6.87
2019-05-19T08:56:16.302Z,7.10
2019-05-19T08:58:46.878Z,7.03
2019-05-19T09:01:18.050Z,6.77
2019-05-19T09:03:49.173Z,6.93
2019-05-19T09:06:20.905Z,6.87
2019-05-19T09:08:51.493Z,6.40
2019-05-19T09:11:22.423Z,6.90
2019-05-19T09:13:52.942Z,6.10
2019-05-19T09:16:24.068Z,6.47
2019-05-19T09:18:54.622Z,6.20
2019-05-19T09:21:25.209Z,7.37
2019-05-19T09:23:55.696Z,5.93
2019-05-19T09:26:26.339Z,6.10
2019-05-19T09:28:57.006Z,6.00
2019-05-19T09:31:27.501Z,7.00
2019-05-19T09:33:58.028Z,6.60
2019-05-19T09:36:29.248Z,6.30
2019-05-19T09:38:59.836Z,5.80
2019-05-19T09:41:30.902Z,6.13
2019-05-19T09:44:01.414Z,5.93
2019-05-19T09:46:32.051Z,5.93
2019-05-19T09:49:21.670Z,6.20
2019-05-19T09:51:52.246Z,6.20
2019-05-19T09:54:23.325Z,6.27
2019-05-19T09:56:54.204Z,6.47
2019-05-19T09:59:25.100Z,6.00
2019-05-19T10:01:56.106Z,6.10
2019-05-19T10:04:26.694Z,5.50
2019-05-19T10:06:57.395Z,6.17
2019-05-19T10:10:13.209Z,6.00
2019-05-19T10:12:43.824Z,6.00
2019-05-19T10:15:14.947Z,6.07
2019-05-19T10:17:45.354Z,6.43
2019-05-19T10:20:16.158Z,6.08
2019-05-19T10:22:46.616Z,6.03
2019-05-19T10:25:22.044Z,5.93
2019-05-19T10:27:49.786Z,5.60
2019-05-19T10:30:20.183Z,6.47
2019-05-19T10:32:50.594Z,6.00
2019-05-19T10:35:21.655Z,6.23
2019-05-19T10:37:52.276Z,6.03
2019-05-19T10:40:24.393Z,7.20
2019-05-19T10:42:58.276Z,6.47
2019-05-19T10:45:28.709Z,6.47
2019-05-19T10:47:59.510Z,6.37
2019-05-19T11:05:20.170Z,7.13
2019-05-19T11:07:50.784Z,6.10
2019-05-19T11:10:21.279Z,6.33
2019-05-19T11:12:51.759Z,6.20
2019-05-19T11:15:22.214Z,6.97
2019-05-19T11:17:52.694Z,6.87
2019-05-19T11:20:23.178Z,7.90
2019-05-19T11:22:53.591Z,6.37
2019-05-19T11:25:33.432Z,6.27
2019-05-19T11:27:56.218Z,6.73
2019-05-19T11:30:26.671Z,6.70
2019-05-19T11:32:57.167Z,6.87
2019-05-19T11:35:27.550Z,6.47
2019-05-19T11:37:58.320Z,6.47
2019-05-19T11:40:28.799Z,6.43
2019-05-19T11:42:59.377Z,7.03
2019-05-19T11:45:29.848Z,7.10
2019-05-19T11:48:00.267Z,6.73
2019-05-19T11:50:30.731Z,7.10
2019-05-19T11:53:01.311Z,6.87
2019-05-19T11:55:31.684Z,7.67
2019-05-19T11:58:02.092Z,7.43
2019-05-19T12:00:32.541Z,7.13
2019-05-19T12:03:03.066Z,8.03
2019-05-19T12:05:33.618Z,8.43
2019-05-19T12:08:04.288Z,8.53
2019-05-19T12:10:37.535Z,8.77
2019-05-19T12:13:08.006Z,9.03
2019-05-19T12:15:38.524Z,8.47
2019-05-19T12:18:08.951Z,8.30
2019-05-19T12:20:39.551Z,8.37
2019-05-19T12:23:10.007Z,8.90
2019-05-19T12:25:40.411Z,8.33
2019-05-19T12:28:10.890Z,7.83
2019-05-19T12:30:41.347Z,8.20
2019-05-19T12:33:11.750Z,8.83
2019-05-19T12:35:42.164Z,8.83
2019-05-19T12:38:12.722Z,8.77
2019-05-19T12:40:43.411Z,7.67
2019-05-19T12:43:13.780Z,7.43
2019-05-19T12:45:44.380Z,8.30
2019-05-19T12:48:14.787Z,8.33
2019-05-19T12:50:45.290Z,7.70
2019-05-19T12:53:15.671Z,7.70
2019-05-19T12:55:46.092Z,8.13
2019-05-19T12:58:16.560Z,7.80
2019-05-19T13:00:47.143Z,8.40
2019-05-19T13:03:17.630Z,7.83
2019-05-19T13:05:48.124Z,8.43
2019-05-19T13:08:18.627Z,8.60
2019-05-19T13:10:49.048Z,8.43
2019-05-19T13:13:19.518Z,8.07
2019-05-19T13:15:50.001Z,8.23
2019-05-19T13:18:20.484Z,8.73
2019-05-19T13:20:50.903Z,9.00
2019-05-19T13:23:21.386Z,8.97
2019-05-19T13:25:52.338Z,9.23
2019-05-19T13:28:23.394Z,9.20
2019-05-19T13:30:53.865Z,8.63
2019-05-19T13:33:25.143Z,8.47
2019-05-19T13:35:55.602Z,8.53
2019-05-19T13:38:26.011Z,8.73
2019-05-19T13:40:56.507Z,8.73
2019-05-19T13:43:28.176Z,8.50
2019-05-19T13:45:58.710Z,8.37
2019-05-19T13:48:29.423Z,8.03
2019-05-19T13:51:00.208Z,8.30
2019-05-19T13:53:30.806Z,8.53
2019-05-19T13:56:01.287Z,8.05
2019-05-19T13:58:31.666Z,7.67
2019-05-19T14:01:02.279Z,7.73
2019-05-19T14:03:32.698Z,7.50
2019-05-19T14:06:03.192Z,7.73
2019-05-19T14:08:34.191Z,7.40
2019-05-19T14:11:04.574Z,6.93
2019-05-19T14:13:35.253Z,7.10
2019-05-19T14:16:05.731Z,7.97
2019-05-19T14:18:36.121Z,8.47
2019-05-19T14:21:06.635Z,8.13
2019-05-19T14:23:37.046Z,8.37
2019-05-19T14:26:07.762Z,8.60
2019-05-19T14:28:38.139Z,8.20
2019-05-19T14:31:08.557Z,7.93
2019-05-19T14:33:39.454Z,7.90
2019-05-19T14:36:10.219Z,7.87
2019-05-19T14:38:58.952Z,7.90
2019-05-19T14:41:33.799Z,7.20
2019-05-19T14:44:04.831Z,7.20
2019-05-19T14:46:35.208Z,7.20
2019-05-19T14:49:07.174Z,7.10
2019-05-19T14:51:37.639Z,7.60
2019-05-19T14:54:08.565Z,6.90
2019-05-19T14:56:38.962Z,6.80
2019-05-19T14:59:09.434Z,6.83
2019-05-19T15:01:40.235Z,6.70
2019-05-19T15:04:10.711Z,6.70
2019-05-19T15:06:41.187Z,7.00
2019-05-19T15:09:11.586Z,7.17
2019-05-19T15:11:42.091Z,7.27
2019-05-19T15:14:12.610Z,6.70
2019-05-19T15:16:42.995Z,6.27
2019-05-19T15:19:13.659Z,6.70
2019-05-19T15:21:44.242Z,6.67
2019-05-19T15:24:14.835Z,6.17
2019-05-19T15:26:45.222Z,6.63
2019-05-19T15:29:15.718Z,6.30
2019-05-19T15:31:46.207Z,6.43
2019-05-19T15:34:16.595Z,6.60
2019-05-19T15:36:47.168Z,6.80
2019-05-19T15:39:17.651Z,6.80
2019-05-19T15:41:48.340Z,6.80
2019-05-19T15:44:18.860Z,6.30
2019-05-19T15:46:49.430Z,7.10
2019-05-19T15:49:19.951Z,6.97
2019-05-19T15:52:02.012Z,6.57
2019-05-19T15:54:22.695Z,6.40
2019-05-19T15:56:53.298Z,6.33
2019-05-19T15:59:23.846Z,6.90
2019-05-19T16:01:54.268Z,7.07
2019-05-19T16:04:24.744Z,6.63
2019-05-19T16:06:55.564Z,6.87
2019-05-19T16:09:26.035Z,6.63
2019-05-19T16:11:56.428Z,7.20
2019-05-19T16:14:26.859Z,6.87
2019-05-19T16:16:57.475Z,7.13
2019-05-19T16:19:27.927Z,6.80
2019-05-19T16:21:58.325Z,8.07
2019-05-19T16:24:29.195Z,7.63
2019-05-19T16:26:59.670Z,7.67
2019-05-19T16:29:30.146Z,6.87
2019-05-19T16:32:00.767Z,6.83
2019-05-19T16:34:31.219Z,7.63
2019-05-19T16:37:01.691Z,7.57
2019-05-19T16:39:32.334Z,6.73
2019-05-19T16:42:02.898Z,7.33
2019-05-19T16:44:33.309Z,6.87
2019-05-19T16:47:03.775Z,5.83
2019-05-19T16:49:34.183Z,6.00
2019-05-19T16:52:04.605Z,6.20
2019-05-19T16:54:37.639Z,5.40
2019-05-19T16:57:08.315Z,5.70
2019-05-19T16:59:39.138Z,5.83
2019-05-19T17:02:10.080Z,5.33
2019-05-19T17:04:40.594Z,5.13
2019-05-19T17:07:11.994Z,5.50
2019-05-19T17:09:43.158Z,4.93
2019-05-19T17:12:13.634Z,5.00
2019-05-19T17:14:44.835Z,4.60
2019-05-19T17:17:15.318Z,4.57
2019-05-19T17:19:45.699Z,4.97
2019-05-19T17:22:16.194Z,4.53
2019-05-19T17:24:46.732Z,5.20
2019-05-19T17:27:17.235Z,4.80
2019-05-19T17:29:48.778Z,4.60
2019-05-19T17:32:20.491Z,4.70
2019-05-19T17:34:51.413Z,4.60
2019-05-19T17:37:21.879Z,4.70
2019-05-19T17:39:52.369Z,5.07
2019-05-19T17:42:22.867Z,4.90
2019-05-19T17:44:53.344Z,4.60
2019-05-19T17:47:23.831Z,4.63
2019-05-19T17:49:54.302Z,5.37
2019-05-19T17:52:24.786Z,4.63
2019-05-19T17:54:55.389Z,5.10
2019-05-19T17:57:25.943Z,5.10
2019-05-19T17:59:57.343Z,4.80
2019-05-19T18:02:28.953Z,4.50
2019-05-19T18:05:00.175Z,4.43
2019-05-19T18:07:30.582Z,4.57
2019-05-19T18:10:02.001Z,4.27
2019-05-19T18:12:32.513Z,4.50
2019-05-19T18:15:03.562Z,4.40
2019-05-19T18:17:34.784Z,4.70
2019-05-19T18:20:06.451Z,4.77
2019-05-19T18:22:37.279Z,4.70
2019-05-19T18:25:07.806Z,4.43
2019-05-19T18:27:38.289Z,4.57
2019-05-19T18:30:09.199Z,4.50
2019-05-19T18:32:39.773Z,4.20
2019-05-19T18:35:10.467Z,4.03
2019-05-19T18:37:40.939Z,4.07
2019-05-19T18:40:12.179Z,4.20
2019-05-19T18:42:42.635Z,4.40
2019-05-19T18:45:13.351Z,4.40
2019-05-19T18:47:43.935Z,3.97
2019-05-19T18:50:14.524Z,3.90
2019-05-19T18:52:45.318Z,3.87
2019-05-19T18:55:16.242Z,3.83
2019-05-19T18:57:47.224Z,4.17
2019-05-19T19:00:34.021Z,4.17
2019-05-19T19:03:05.218Z,4.33
2019-05-19T19:05:35.801Z,4.37
2019-05-19T19:08:06.229Z,4.70
2019-05-19T19:10:36.699Z,4.70
2019-05-19T19:13:08.137Z,4.60
2019-05-19T19:15:38.622Z,5.40
2019-05-19T19:18:09.108Z,5.73
2019-05-19T19:20:40.115Z,6.30
2019-05-19T19:23:10.607Z,6.77
2019-05-19T19:25:41.596Z,7.27
2019-05-19T19:28:12.336Z,6.53
2019-05-19T19:30:43.587Z,7.47
2019-05-19T19:33:14.012Z,7.60
2019-05-19T19:35:45.395Z,7.40
2019-05-19T19:38:15.867Z,7.70
2019-05-19T19:40:46.243Z,7.63
2019-05-19T19:43:16.751Z,7.30
2019-05-19T19:45:47.267Z,7.30
2019-05-19T19:48:17.715Z,7.77
2019-05-19T19:50:48.287Z,7.47
2019-05-19T19:53:19.217Z,7.50
2019-05-19T19:55:49.695Z,6.80
2019-05-19T19:58:20.317Z,6.67
2019-05-19T20:00:50.776Z,6.90
2019-05-19T20:03:21.569Z,6.87
2019-05-19T20:05:52.166Z,7.27
2019-05-19T20:08:22.959Z,6.97
2019-05-19T20:10:53.415Z,7.67
2019-05-19T20:13:23.905Z,7.57
2019-05-19T20:15:55.239Z,7.23
2019-05-19T20:18:26.166Z,7.33
2019-05-19T20:20:57.034Z,6.87
2019-05-19T20:23:27.552Z,7.57
2019-05-19T20:25:58.583Z,7.17
2019-05-19T20:28:29.271Z,6.70
2019-05-19T20:30:59.834Z,6.80
2019-05-19T20:33:30.387Z,6.40
2019-05-19T20:36:01.430Z,5.90
2019-05-19T20:38:31.891Z,5.67
2019-05-19T20:41:05.562Z,6.30
2019-05-19T20:43:37.546Z,5.90
2019-05-19T20:46:08.436Z,6.60
2019-05-19T20:48:39.099Z,6.90
2019-05-19T20:51:09.926Z,6.97
2019-05-19T20:53:40.531Z,7.40
2019-05-19T20:56:11.886Z,7.53
2019-05-19T20:58:42.463Z,7.33
2019-05-19T21:01:13.308Z,7.67
2019-05-19T21:03:44.539Z,7.83
2019-05-19T21:06:15.359Z,8.30
2019-05-19T21:08:45.866Z,8.27
2019-05-19T21:11:17.451Z,7.63
2019-05-19T21:13:47.920Z,6.97
2019-05-19T21:16:18.406Z,6.83
2019-05-19T21:18:49.751Z,7.70
2019-05-19T21:21:20.817Z,7.30
2019-05-19T21:23:52.228Z,7.17
2019-05-19T21:26:23.790Z,7.67
2019-05-19T21:28:54.462Z,6.50
2019-05-19T21:31:25.326Z,7.53
2019-05-19T21:33:55.850Z,7.57
2019-05-19T21:36:26.272Z,7.40
2019-05-19T21:38:56.718Z,7.40
2019-05-19T21:41:27.104Z,7.13
2019-05-19T21:43:58.350Z,7.23
2019-05-19T21:46:30.575Z,6.90
2019-05-19T21:49:01.099Z,6.83
2019-05-19T21:51:31.587Z,6.40
2019-05-19T21:54:02.058Z,6.33
2019-05-19T21:56:32.522Z,6.20
2019-05-19T21:59:03.126Z,5.92
2019-05-19T22:01:36.824Z,6.93
2019-05-19T22:04:07.270Z,6.00
2019-05-19T22:06:39.299Z,6.10
2019-05-19T22:09:09.842Z,6.20
2019-05-19T22:11:40.253Z,6.33
2019-05-19T22:14:10.832Z,5.90
2019-05-19T22:16:41.327Z,5.73
2019-05-19T22:19:11.817Z,5.87
2019-05-19T22:21:42.704Z,6.23
2019-05-19T22:24:13.291Z,6.13
2019-05-19T22:26:44.262Z,6.17
2019-05-19T22:29:14.821Z,5.67
2019-05-19T22:31:46.219Z,5.87
2019-05-19T22:34:16.598Z,5.90
2019-05-19T22:36:46.992Z,5.53
2019-05-19T22:39:17.366Z,7.00
2019-05-19T22:41:47.779Z,6.80
2019-05-19T22:44:20.230Z,7.13
2019-05-19T22:46:50.275Z,7.10
2019-05-19T22:49:20.810Z,7.30
2019-05-19T22:51:51.306Z,6.70
2019-05-19T22:54:21.710Z,7.50
2019-05-19T22:56:52.203Z,7.87
2019-05-19T22:59:22.696Z,7.67
2019-05-19T23:01:53.147Z,7.50
2019-05-19T23:04:23.765Z,7.60
2019-05-19T23:06:54.370Z,7.73
2019-05-19T23:09:24.883Z,7.23
2019-05-19T23:11:55.361Z,7.20
2019-05-19T23:14:25.939Z,8.40
2019-05-19T23:16:56.435Z,8.08
2019-05-19T23:19:27.023Z,8.50
2019-05-19T23:21:57.467Z,8.00
2019-05-19T23:24:27.875Z,8.40
2019-05-19T23:26:58.323Z,7.40
2019-05-19T23:29:28.927Z,7.50
2019-05-19T23:32:07.300Z,7.40
2019-05-19T23:34:31.431Z,6.27
2019-05-19T23:37:01.911Z,6.50
2019-05-19T23:39:32.582Z,6.80
2019-05-19T23:42:03.143Z,6.47
2019-05-19T23:44:33.599Z,4.87
2019-05-19T23:47:04.154Z,4.97
2019-05-19T23:49:34.532Z,5.00
2019-05-19T23:52:04.961Z,4.60
2019-05-19T23:54:35.347Z,4.47
2019-05-19T23:57:05.872Z,4.70
2019-05-19T23:59:36.243Z,3.70
